Terminal Aerodrome Forecast
Issued by NWS

Home | Current Version | Previous Version | Graphics & Text | Print | Product List | Glossary On
Versions: 1 2 3 4 5 6 7 8 9 10 11 12 13 14 15 16 17 18 19 20 21 22
693
FTUS43 KICT 270746 AAA
TAFCNU
TAF AMD
KCNU 270746Z 2708/2806 06012G20KT P6SM VCTS SCT020 BKN035CB
     FM271000 01009KT 5SM BR SCT005 OVC008
     FM271400 35014G21KT P6SM SCT009 OVC015
     FM272000 35010KT P6SM BKN030=

USA.gov is the U.S. government's official web portal to all federal, state and local government web resources and services.